sensor_id;sensor_type;location;lat;lon;timestamp;temperature;humidity
52016;DHT22;38032;53.326;6.472;2023-02-28T00:00:11;7.10;99.90
52016;DHT22;38032;53.326;6.472;2023-02-28T00:02:39;6.10;99.90
52016;DHT22;38032;53.326;6.472;2023-02-28T00:05:07;6.10;99.90
52016;DHT22;38032;53.326;6.472;2023-02-28T00:07:33;6.20;99.90
52016;DHT22;38032;53.326;6.472;2023-02-28T00:09:59;6.20;99.90
52016;DHT22;38032;53.326;6.472;2023-02-28T00:12:26;5.70;99.90
52016;DHT22;38032;53.326;6.472;2023-02-28T00:14:52;6.20;99.90
52016;DHT22;38032;53.326;6.472;2023-02-28T00:19:47;7.20;99.90
52016;DHT22;38032;53.326;6.472;2023-02-28T00:22:15;6.20;99.90
52016;DHT22;38032;53.326;6.472;2023-02-28T00:27:07;5.30;99.90
52016;DHT22;38032;53.326;6.472;2023-02-28T00:31:59;7.40;99.90
52016;DHT22;38032;53.326;6.472;2023-02-28T00:34:25;6.30;99.90
52016;DHT22;38032;53.326;6.472;2023-02-28T00:39:17;6.30;99.90
52016;DHT22;38032;53.326;6.472;2023-02-28T00:41:43;6.40;99.90
52016;DHT22;38032;53.326;6.472;2023-02-28T00:44:09;6.30;99.90
52016;DHT22;38032;53.326;6.472;2023-02-28T00:49:01;6.40;99.90
52016;DHT22;38032;53.326;6.472;2023-02-28T00:51:27;6.30;99.90
52016;DHT22;38032;53.326;6.472;2023-02-28T00:56:19;6.30;99.90
52016;DHT22;38032;53.326;6.472;2023-02-28T01:03:38;7.30;99.90
52016;DHT22;38032;53.326;6.472;2023-02-28T01:06:04;6.40;99.90
52016;DHT22;38032;53.326;6.472;2023-02-28T01:08:31;5.90;99.90
52016;DHT22;38032;53.326;6.472;2023-02-28T01:10:57;7.10;99.90
52016;DHT22;38032;53.326;6.472;2023-02-28T01:13:23;6.40;99.90
52016;DHT22;38032;53.326;6.472;2023-02-28T01:15:53;6.30;99.90
52016;DHT22;38032;53.326;6.472;2023-02-28T01:18:21;6.40;99.90
52016;DHT22;38032;53.326;6.472;2023-02-28T01:20:47;5.70;99.90
52016;DHT22;38032;53.326;6.472;2023-02-28T01:23:13;7.10;99.90
52016;DHT22;38032;53.326;6.472;2023-02-28T01:25:39;6.40;99.90
52016;DHT22;38032;53.326;6.472;2023-02-28T01:37:51;6.40;99.90
52016;DHT22;38032;53.326;6.472;2023-02-28T01:42:43;6.50;99.90
52016;DHT22;38032;53.326;6.472;2023-02-28T01:45:27;6.50;99.90
52016;DHT22;38032;53.326;6.472;2023-02-28T01:47:58;6.50;99.90
52016;DHT22;38032;53.326;6.472;2023-02-28T01:50:28;6.50;99.90
52016;DHT22;38032;53.326;6.472;2023-02-28T01:52:58;6.50;99.90
52016;DHT22;38032;53.326;6.472;2023-02-28T01:55:26;6.60;99.90
52016;DHT22;38032;53.326;6.472;2023-02-28T01:57:57;6.50;99.90
52016;DHT22;38032;53.326;6.472;2023-02-28T02:00:25;6.70;99.90
52016;DHT22;38032;53.326;6.472;2023-02-28T02:02:56;6.00;99.90
52016;DHT22;38032;53.326;6.472;2023-02-28T02:05:29;6.50;99.90
52016;DHT22;38032;53.326;6.472;2023-02-28T02:08:01;6.70;99.90
52016;DHT22;38032;53.326;6.472;2023-02-28T02:10:35;6.60;99.90
52016;DHT22;38032;53.326;6.472;2023-02-28T02:13:19;6.60;99.90
52016;DHT22;38032;53.326;6.472;2023-02-28T02:16:09;6.60;99.90
52016;DHT22;38032;53.326;6.472;2023-02-28T02:18:42;6.50;99.90
52016;DHT22;38032;53.326;6.472;2023-02-28T02:21:16;6.60;99.90
52016;DHT22;38032;53.326;6.472;2023-02-28T02:29:16;6.60;99.90
52016;DHT22;38032;53.326;6.472;2023-02-28T02:31:58;6.40;99.90
52016;DHT22;38032;53.326;6.472;2023-02-28T02:34:40;6.60;99.90
52016;DHT22;38032;53.326;6.472;2023-02-28T02:37:10;7.00;99.90
52016;DHT22;38032;53.326;6.472;2023-02-28T02:42:28;6.50;99.90
52016;DHT22;38032;53.326;6.472;2023-02-28T02:45:00;7.60;99.90
52016;DHT22;38032;53.326;6.472;2023-02-28T02:47:29;6.60;99.90
52016;DHT22;38032;53.326;6.472;2023-02-28T02:49:58;6.80;99.90
52016;DHT22;38032;53.326;6.472;2023-02-28T02:52:32;6.60;99.90
52016;DHT22;38032;53.326;6.472;2023-02-28T02:55:02;7.70;99.90
52016;DHT22;38032;53.326;6.472;2023-02-28T02:57:40;6.50;99.90
52016;DHT22;38032;53.326;6.472;2023-02-28T03:03:32;6.60;99.90
52016;DHT22;38032;53.326;6.472;2023-02-28T03:06:01;7.50;99.90
52016;DHT22;38032;53.326;6.472;2023-02-28T03:08:29;6.60;99.90
52016;DHT22;38032;53.326;6.472;2023-02-28T03:10:59;6.60;99.90
52016;DHT22;38032;53.326;6.472;2023-02-28T03:13:42;6.70;99.90
52016;DHT22;38032;53.326;6.472;2023-02-28T03:16:35;6.60;99.90
52016;DHT22;38032;53.326;6.472;2023-02-28T03:19:25;6.50;99.90
52016;DHT22;38032;53.326;6.472;2023-02-28T03:21:59;6.50;99.90
52016;DHT22;38032;53.326;6.472;2023-02-28T03:27:06;7.60;99.90
52016;DHT22;38032;53.326;6.472;2023-02-28T03:29:39;6.60;99.90
52016;DHT22;38032;53.326;6.472;2023-02-28T03:32:18;6.60;99.90
52016;DHT22;38032;53.326;6.472;2023-02-28T03:34:57;6.50;99.90
52016;DHT22;38032;53.326;6.472;2023-02-28T03:37:25;6.50;99.90
52016;DHT22;38032;53.326;6.472;2023-02-28T03:39:58;6.70;99.90
52016;DHT22;38032;53.326;6.472;2023-02-28T03:42:28;6.60;99.90
52016;DHT22;38032;53.326;6.472;2023-02-28T03:45:00;6.70;99.90
52016;DHT22;38032;53.326;6.472;2023-02-28T03:50:05;6.80;99.90
52016;DHT22;38032;53.326;6.472;2023-02-28T03:52:37;6.70;99.90
52016;DHT22;38032;53.326;6.472;2023-02-28T03:55:09;7.70;99.90
52016;DHT22;38032;53.326;6.472;2023-02-28T04:00:31;6.60;99.90
52016;DHT22;38032;53.326;6.472;2023-02-28T04:05:25;6.50;99.90
52016;DHT22;38032;53.326;6.472;2023-02-28T04:12:45;6.30;99.90
52016;DHT22;38032;53.326;6.472;2023-02-28T04:15:11;6.50;99.90
52016;DHT22;38032;53.326;6.472;2023-02-28T04:20:04;6.30;99.90
52016;DHT22;38032;53.326;6.472;2023-02-28T04:22:35;6.30;99.90
52016;DHT22;38032;53.326;6.472;2023-02-28T04:25:01;5.90;99.90
52016;DHT22;38032;53.326;6.472;2023-02-28T04:27:26;6.30;99.90
52016;DHT22;38032;53.326;6.472;2023-02-28T04:37:11;6.40;99.90
52016;DHT22;38032;53.326;6.472;2023-02-28T04:39:37;6.40;99.90
52016;DHT22;38032;53.326;6.472;2023-02-28T04:42:03;6.30;99.90
52016;DHT22;38032;53.326;6.472;2023-02-28T04:44:29;6.50;99.90
52016;DHT22;38032;53.326;6.472;2023-02-28T04:46:55;6.50;99.90
52016;DHT22;38032;53.326;6.472;2023-02-28T04:51:47;6.40;99.90
52016;DHT22;38032;53.326;6.472;2023-02-28T04:54:15;6.30;99.90
52016;DHT22;38032;53.326;6.472;2023-02-28T04:56:41;6.40;99.90
52016;DHT22;38032;53.326;6.472;2023-02-28T04:59:07;6.30;99.90
52016;DHT22;38032;53.326;6.472;2023-02-28T05:01:34;7.20;99.90
52016;DHT22;38032;53.326;6.472;2023-02-28T05:04:03;6.10;99.90
52016;DHT22;38032;53.326;6.472;2023-02-28T05:06:31;6.00;99.90
52016;DHT22;38032;53.326;6.472;2023-02-28T05:11:26;5.80;99.90
52016;DHT22;38032;53.326;6.472;2023-02-28T05:13:52;6.80;99.90
52016;DHT22;38032;53.326;6.472;2023-02-28T05:16:19;5.80;99.90
52016;DHT22;38032;53.326;6.472;2023-02-28T05:18:46;5.80;99.90
52016;DHT22;38032;53.326;6.472;2023-02-28T05:21:27;5.70;99.90
52016;DHT22;38032;53.326;6.472;2023-02-28T05:23:54;5.60;99.90
52016;DHT22;38032;53.326;6.472;2023-02-28T05:26:21;5.80;99.90
52016;DHT22;38032;53.326;6.472;2023-02-28T05:28:47;4.80;99.90
52016;DHT22;38032;53.326;6.472;2023-02-28T05:33:39;5.50;99.90
52016;DHT22;38032;53.326;6.472;2023-02-28T05:36:05;5.40;99.90
52016;DHT22;38032;53.326;6.472;2023-02-28T05:38:32;5.40;99.90
52016;DHT22;38032;53.326;6.472;2023-02-28T05:40:58;5.50;99.90
52016;DHT22;38032;53.326;6.472;2023-02-28T05:45:50;5.40;99.90
52016;DHT22;38032;53.326;6.472;2023-02-28T05:48:16;5.40;99.90
52016;DHT22;38032;53.326;6.472;2023-02-28T05:50:42;6.10;99.90
52016;DHT22;38032;53.326;6.472;2023-02-28T05:53:11;5.30;99.90
52016;DHT22;38032;53.326;6.472;2023-02-28T05:58:04;5.20;99.90
52016;DHT22;38032;53.326;6.472;2023-02-28T06:05:25;4.80;99.90
52016;DHT22;38032;53.326;6.472;2023-02-28T06:10:17;5.10;99.90
52016;DHT22;38032;53.326;6.472;2023-02-28T06:15:16;5.10;99.90
52016;DHT22;38032;53.326;6.472;2023-02-28T06:17:43;5.50;99.90
52016;DHT22;38032;53.326;6.472;2023-02-28T06:20:10;4.80;99.90
52016;DHT22;38032;53.326;6.472;2023-02-28T06:22:39;5.60;99.90
52016;DHT22;38032;53.326;6.472;2023-02-28T06:25:06;5.20;99.90
52016;DHT22;38032;53.326;6.472;2023-02-28T06:27:32;5.20;99.90
52016;DHT22;38032;53.326;6.472;2023-02-28T06:29:58;6.30;99.90
52016;DHT22;38032;53.326;6.472;2023-02-28T06:32:25;5.10;99.90
52016;DHT22;38032;53.326;6.472;2023-02-28T06:34:50;5.20;99.90
52016;DHT22;38032;53.326;6.472;2023-02-28T06:37:17;5.10;99.90
52016;DHT22;38032;53.326;6.472;2023-02-28T06:42:10;5.20;99.90
52016;DHT22;38032;53.326;6.472;2023-02-28T06:44:36;4.20;99.90
52016;DHT22;38032;53.326;6.472;2023-02-28T06:47:04;6.20;99.90
52016;DHT22;38032;53.326;6.472;2023-02-28T06:49:31;5.10;99.90
52016;DHT22;38032;53.326;6.472;2023-02-28T06:51:58;5.10;99.90
52016;DHT22;38032;53.326;6.472;2023-02-28T06:56:50;5.40;99.90
52016;DHT22;38032;53.326;6.472;2023-02-28T06:59:16;5.50;99.90
52016;DHT22;38032;53.326;6.472;2023-02-28T07:01:42;5.00;99.90
52016;DHT22;38032;53.326;6.472;2023-02-28T07:04:08;5.50;99.90
52016;DHT22;38032;53.326;6.472;2023-02-28T07:11:27;4.40;99.90
52016;DHT22;38032;53.326;6.472;2023-02-28T07:13:54;4.80;99.90
52016;DHT22;38032;53.326;6.472;2023-02-28T07:16:21;4.30;99.90
52016;DHT22;38032;53.326;6.472;2023-02-28T07:18:47;4.20;99.90
52016;DHT22;38032;53.326;6.472;2023-02-28T07:21:14;4.80;99.90
52016;DHT22;38032;53.326;6.472;2023-02-28T07:23:40;4.50;99.90
52016;DHT22;38032;53.326;6.472;2023-02-28T07:26:12;4.60;99.90
52016;DHT22;38032;53.326;6.472;2023-02-28T07:28:41;4.30;99.90
52016;DHT22;38032;53.326;6.472;2023-02-28T07:33:35;4.70;99.90
52016;DHT22;38032;53.326;6.472;2023-02-28T07:36:03;4.80;99.90
52016;DHT22;38032;53.326;6.472;2023-02-28T07:38:29;4.70;99.90
52016;DHT22;38032;53.326;6.472;2023-02-28T07:40:55;4.60;99.90
52016;DHT22;38032;53.326;6.472;2023-02-28T07:45:47;4.80;99.90
52016;DHT22;38032;53.326;6.472;2023-02-28T07:50:40;4.70;99.90
52016;DHT22;38032;53.326;6.472;2023-02-28T07:57:58;4.40;99.90
52016;DHT22;38032;53.326;6.472;2023-02-28T08:00:24;5.80;99.90
52016;DHT22;38032;53.326;6.472;2023-02-28T08:02:50;4.80;99.90
52016;DHT22;38032;53.326;6.472;2023-02-28T08:05:16;4.90;99.90
52016;DHT22;38032;53.326;6.472;2023-02-28T08:07:42;5.10;99.90
52016;DHT22;38032;53.326;6.472;2023-02-28T08:10:09;5.10;99.90
52016;DHT22;38032;53.326;6.472;2023-02-28T08:12:35;5.70;99.90
52016;DHT22;38032;53.326;6.472;2023-02-28T08:15:01;5.20;99.90
52016;DHT22;38032;53.326;6.472;2023-02-28T08:19:53;6.00;99.90
52016;DHT22;38032;53.326;6.472;2023-02-28T08:22:19;5.50;99.90
52016;DHT22;38032;53.326;6.472;2023-02-28T08:27:11;5.50;99.90
52016;DHT22;38032;53.326;6.472;2023-02-28T08:29:38;5.60;99.90
52016;DHT22;38032;53.326;6.472;2023-02-28T08:32:06;5.70;99.90
52016;DHT22;38032;53.326;6.472;2023-02-28T08:36:58;5.90;99.90
52016;DHT22;38032;53.326;6.472;2023-02-28T08:41:50;6.50;99.90
52016;DHT22;38032;53.326;6.472;2023-02-28T08:44:16;6.30;99.90
52016;DHT22;38032;53.326;6.472;2023-02-28T08:49:10;6.60;99.90
52016;DHT22;38032;53.326;6.472;2023-02-28T08:51:38;6.80;99.90
52016;DHT22;38032;53.326;6.472;2023-02-28T08:54:04;6.80;99.90
52016;DHT22;38032;53.326;6.472;2023-02-28T08:56:31;7.00;99.90
52016;DHT22;38032;53.326;6.472;2023-02-28T08:58:57;6.80;99.90
52016;DHT22;38032;53.326;6.472;2023-02-28T09:01:26;7.10;99.90
52016;DHT22;38032;53.326;6.472;2023-02-28T09:03:54;7.10;99.90
52016;DHT22;38032;53.326;6.472;2023-02-28T09:06:23;7.30;99.90
52016;DHT22;38032;53.326;6.472;2023-02-28T09:08:50;7.20;99.90
52016;DHT22;38032;53.326;6.472;2023-02-28T09:11:16;7.80;99.90
52016;DHT22;38032;53.326;6.472;2023-02-28T09:13:42;8.00;99.90
52016;DHT22;38032;53.326;6.472;2023-02-28T09:16:11;8.50;99.90
52016;DHT22;38032;53.326;6.472;2023-02-28T09:18:38;8.10;99.90
52016;DHT22;38032;53.326;6.472;2023-02-28T09:21:06;9.30;99.90
52016;DHT22;38032;53.326;6.472;2023-02-28T09:23:32;8.80;99.90
52016;DHT22;38032;53.326;6.472;2023-02-28T09:25:58;8.70;99.90
52016;DHT22;38032;53.326;6.472;2023-02-28T09:30:53;8.80;99.90
52016;DHT22;38032;53.326;6.472;2023-02-28T09:33:20;8.90;99.90
52016;DHT22;38032;53.326;6.472;2023-02-28T09:35:47;9.20;99.90
52016;DHT22;38032;53.326;6.472;2023-02-28T09:38:14;9.10;99.90
52016;DHT22;38032;53.326;6.472;2023-02-28T09:40:49;10.60;99.90
52016;DHT22;38032;53.326;6.472;2023-02-28T09:43:16;9.60;99.90
52016;DHT22;38032;53.326;6.472;2023-02-28T09:45:50;10.10;99.90
52016;DHT22;38032;53.326;6.472;2023-02-28T09:48:21;10.20;99.90
52016;DHT22;38032;53.326;6.472;2023-02-28T09:50:51;12.00;99.90
52016;DHT22;38032;53.326;6.472;2023-02-28T09:53:34;12.80;99.90
52016;DHT22;38032;53.326;6.472;2023-02-28T09:56:06;13.20;99.90
52016;DHT22;38032;53.326;6.472;2023-02-28T09:58:49;14.40;99.90
52016;DHT22;38032;53.326;6.472;2023-02-28T10:01:49;16.20;99.90
52016;DHT22;38032;53.326;6.472;2023-02-28T10:07:17;16.50;99.90
52016;DHT22;38032;53.326;6.472;2023-02-28T10:12:18;18.10;99.90
52016;DHT22;38032;53.326;6.472;2023-02-28T10:17:25;17.90;99.90
52016;DHT22;38032;53.326;6.472;2023-02-28T10:20:01;18.20;99.90
52016;DHT22;38032;53.326;6.472;2023-02-28T10:22:52;18.30;99.90
52016;DHT22;38032;53.326;6.472;2023-02-28T10:25:22;18.60;97.70
52016;DHT22;38032;53.326;6.472;2023-02-28T10:27:51;19.40;94.40
52016;DHT22;38032;53.326;6.472;2023-02-28T10:30:19;19.30;78.60
52016;DHT22;38032;53.326;6.472;2023-02-28T10:32:50;19.90;79.60
52016;DHT22;38032;53.326;6.472;2023-02-28T10:35:20;20.20;74.90
52016;DHT22;38032;53.326;6.472;2023-02-28T10:37:49;20.80;90.10
52016;DHT22;38032;53.326;6.472;2023-02-28T10:42:42;21.20;81.20
52016;DHT22;38032;53.326;6.472;2023-02-28T10:47:55;22.30;76.80
52016;DHT22;38032;53.326;6.472;2023-02-28T10:56:03;22.40;76.20
52016;DHT22;38032;53.326;6.472;2023-02-28T10:58:48;22.10;79.10
52016;DHT22;38032;53.326;6.472;2023-02-28T11:01:18;22.20;77.40
52016;DHT22;38032;53.326;6.472;2023-02-28T11:03:45;21.90;61.20
52016;DHT22;38032;53.326;6.472;2023-02-28T11:08:46;21.90;58.60
52016;DHT22;38032;53.326;6.472;2023-02-28T11:11:14;22.20;70.20
52016;DHT22;38032;53.326;6.472;2023-02-28T11:13:40;21.60;76.30
52016;DHT22;38032;53.326;6.472;2023-02-28T11:16:10;22.00;57.20
52016;DHT22;38032;53.326;6.472;2023-02-28T11:19:16;22.10;70.00
52016;DHT22;38032;53.326;6.472;2023-02-28T11:21:51;21.40;69.40
52016;DHT22;38032;53.326;6.472;2023-02-28T11:24:33;21.40;54.80
52016;DHT22;38032;53.326;6.472;2023-02-28T11:26:59;21.10;71.30
52016;DHT22;38032;53.326;6.472;2023-02-28T11:29:28;20.90;70.50
52016;DHT22;38032;53.326;6.472;2023-02-28T11:32:03;20.70;71.90
52016;DHT22;38032;53.326;6.472;2023-02-28T11:36:58;20.70;71.90
52016;DHT22;38032;53.326;6.472;2023-02-28T11:39:25;20.00;55.10
52016;DHT22;38032;53.326;6.472;2023-02-28T11:46:52;20.40;55.70
52016;DHT22;38032;53.326;6.472;2023-02-28T11:54:50;19.20;59.20
52016;DHT22;38032;53.326;6.472;2023-02-28T11:57:35;18.70;71.30
52016;DHT22;38032;53.326;6.472;2023-02-28T12:00:08;18.50;70.00
52016;DHT22;38032;53.326;6.472;2023-02-28T12:11:02;17.60;64.40
52016;DHT22;38032;53.326;6.472;2023-02-28T12:19:06;18.20;72.50
52016;DHT22;38032;53.326;6.472;2023-02-28T12:24:28;17.00;72.40
52016;DHT22;38032;53.326;6.472;2023-02-28T12:26:58;16.80;74.70
52016;DHT22;38032;53.326;6.472;2023-02-28T12:29:29;16.80;57.00
52016;DHT22;38032;53.326;6.472;2023-02-28T12:32:03;16.50;75.00
52016;DHT22;38032;53.326;6.472;2023-02-28T12:34:36;16.50;57.10
52016;DHT22;38032;53.326;6.472;2023-02-28T12:37:07;16.10;76.60
52016;DHT22;38032;53.326;6.472;2023-02-28T12:39:41;16.10;57.80
52016;DHT22;38032;53.326;6.472;2023-02-28T12:42:13;16.10;57.90
52016;DHT22;38032;53.326;6.472;2023-02-28T12:44:46;16.30;78.50
52016;DHT22;38032;53.326;6.472;2023-02-28T12:47:16;15.70;76.60
52016;DHT22;38032;53.326;6.472;2023-02-28T12:49:45;15.40;77.70
52016;DHT22;38032;53.326;6.472;2023-02-28T12:52:20;15.30;58.50
52016;DHT22;38032;53.326;6.472;2023-02-28T12:54:53;15.20;77.50
52016;DHT22;38032;53.326;6.472;2023-02-28T12:57:27;15.20;59.00
52016;DHT22;38032;53.326;6.472;2023-02-28T12:59:57;14.80;59.00
52016;DHT22;38032;53.326;6.472;2023-02-28T13:05:46;14.50;59.80
52016;DHT22;38032;53.326;6.472;2023-02-28T13:10:56;14.40;60.40
52016;DHT22;38032;53.326;6.472;2023-02-28T13:13:26;14.40;77.10
52016;DHT22;38032;53.326;6.472;2023-02-28T13:16:08;14.00;81.30
52016;DHT22;38032;53.326;6.472;2023-02-28T13:18:40;14.00;81.10
52016;DHT22;38032;53.326;6.472;2023-02-28T13:21:22;13.90;84.80
52016;DHT22;38032;53.326;6.472;2023-02-28T13:26:23;14.20;78.90
52016;DHT22;38032;53.326;6.472;2023-02-28T13:34:35;13.60;60.50
52016;DHT22;38032;53.326;6.472;2023-02-28T13:37:36;13.70;79.00
52016;DHT22;38032;53.326;6.472;2023-02-28T13:42:46;13.50;80.20
52016;DHT22;38032;53.326;6.472;2023-02-28T13:45:23;13.50;61.60
52016;DHT22;38032;53.326;6.472;2023-02-28T13:47:54;13.50;62.20
52016;DHT22;38032;53.326;6.472;2023-02-28T13:55:48;13.30;70.50
52016;DHT22;38032;53.326;6.472;2023-02-28T14:06:37;12.80;86.60
52016;DHT22;38032;53.326;6.472;2023-02-28T14:09:15;12.70;63.60
52016;DHT22;38032;53.326;6.472;2023-02-28T14:11:44;12.90;87.00
52016;DHT22;38032;53.326;6.472;2023-02-28T14:17:03;12.80;72.50
52016;DHT22;38032;53.326;6.472;2023-02-28T14:19:31;12.80;71.20
52016;DHT22;38032;53.326;6.472;2023-02-28T14:34:54;11.60;70.20
52016;DHT22;38032;53.326;6.472;2023-02-28T14:37:28;11.10;73.00
52016;DHT22;38032;53.326;6.472;2023-02-28T14:39:56;11.10;73.90
52016;DHT22;38032;53.326;6.472;2023-02-28T14:42:33;10.80;74.30
52016;DHT22;38032;53.326;6.472;2023-02-28T14:44:59;10.30;93.10
52016;DHT22;38032;53.326;6.472;2023-02-28T14:47:28;10.30;76.90
52016;DHT22;38032;53.326;6.472;2023-02-28T14:49:57;9.90;94.30
52016;DHT22;38032;53.326;6.472;2023-02-28T14:52:26;9.70;80.00
52016;DHT22;38032;53.326;6.472;2023-02-28T14:54:57;9.80;81.50
52016;DHT22;38032;53.326;6.472;2023-02-28T14:57:26;9.60;82.20
52016;DHT22;38032;53.326;6.472;2023-02-28T14:59:59;9.60;82.50
52016;DHT22;38032;53.326;6.472;2023-02-28T15:02:29;9.50;84.00
52016;DHT22;38032;53.326;6.472;2023-02-28T15:05:10;9.50;96.50
52016;DHT22;38032;53.326;6.472;2023-02-28T15:07:42;9.50;96.90
52016;DHT22;38032;53.326;6.472;2023-02-28T15:10:15;9.50;96.30
52016;DHT22;38032;53.326;6.472;2023-02-28T15:12:52;9.50;83.40
52016;DHT22;38032;53.326;6.472;2023-02-28T15:15:20;9.50;82.70
52016;DHT22;38032;53.326;6.472;2023-02-28T15:17:50;9.70;83.20
52016;DHT22;38032;53.326;6.472;2023-02-28T15:20:19;9.60;96.40
52016;DHT22;38032;53.326;6.472;2023-02-28T15:22:47;9.50;83.40
52016;DHT22;38032;53.326;6.472;2023-02-28T15:25:19;9.60;83.00
52016;DHT22;38032;53.326;6.472;2023-02-28T15:27:49;9.50;96.80
52016;DHT22;38032;53.326;6.472;2023-02-28T15:30:20;9.50;84.70
52016;DHT22;38032;53.326;6.472;2023-02-28T15:33:05;9.60;97.30
52016;DHT22;38032;53.326;6.472;2023-02-28T15:35:32;9.60;97.40
52016;DHT22;38032;53.326;6.472;2023-02-28T15:38:04;9.50;97.00
52016;DHT22;38032;53.326;6.472;2023-02-28T15:40:45;9.50;98.00
52016;DHT22;38032;53.326;6.472;2023-02-28T15:43:17;9.40;87.70
52016;DHT22;38032;53.326;6.472;2023-02-28T15:45:49;9.30;98.40
52016;DHT22;38032;53.326;6.472;2023-02-28T15:48:18;9.20;84.20
52016;DHT22;38032;53.326;6.472;2023-02-28T15:50:51;9.20;84.30
52016;DHT22;38032;53.326;6.472;2023-02-28T15:53:22;9.30;84.80
52016;DHT22;38032;53.326;6.472;2023-02-28T15:55:59;9.30;97.10
52016;DHT22;38032;53.326;6.472;2023-02-28T16:01:06;9.10;97.80
52016;DHT22;38032;53.326;6.472;2023-02-28T16:03:39;9.00;88.90
52016;DHT22;38032;53.326;6.472;2023-02-28T16:06:28;8.80;99.10
52016;DHT22;38032;53.326;6.472;2023-02-28T16:08:56;8.80;89.90
52016;DHT22;38032;53.326;6.472;2023-02-28T16:11:22;9.10;99.10
52016;DHT22;38032;53.326;6.472;2023-02-28T16:13:48;8.60;89.20
52016;DHT22;38032;53.326;6.472;2023-02-28T16:16:17;8.40;89.40
52016;DHT22;38032;53.326;6.472;2023-02-28T16:18:44;8.40;99.90
52016;DHT22;38032;53.326;6.472;2023-02-28T16:21:11;8.00;99.90
52016;DHT22;38032;53.326;6.472;2023-02-28T16:26:04;8.10;91.70
52016;DHT22;38032;53.326;6.472;2023-02-28T16:28:34;8.00;91.80
52016;DHT22;38032;53.326;6.472;2023-02-28T16:31:02;8.00;92.80
52016;DHT22;38032;53.326;6.472;2023-02-28T16:33:29;7.90;93.30
52016;DHT22;38032;53.326;6.472;2023-02-28T16:35:55;8.80;99.90
52016;DHT22;38032;53.326;6.472;2023-02-28T16:40:50;8.10;99.90
52016;DHT22;38032;53.326;6.472;2023-02-28T16:43:19;8.10;99.90
52016;DHT22;38032;53.326;6.472;2023-02-28T16:45:46;8.20;99.90
52016;DHT22;38032;53.326;6.472;2023-02-28T16:48:14;8.10;99.90
52016;DHT22;38032;53.326;6.472;2023-02-28T16:50:41;8.80;99.50
52016;DHT22;38032;53.326;6.472;2023-02-28T16:55:34;8.00;99.90
52016;DHT22;38032;53.326;6.472;2023-02-28T16:58:01;7.80;99.90
52016;DHT22;38032;53.326;6.472;2023-02-28T17:00:29;8.80;99.90
52016;DHT22;38032;53.326;6.472;2023-02-28T17:02:56;7.80;98.60
52016;DHT22;38032;53.326;6.472;2023-02-28T17:05:22;7.80;98.20
52016;DHT22;38032;53.326;6.472;2023-02-28T17:07:49;7.70;99.90
52016;DHT22;38032;53.326;6.472;2023-02-28T17:12:41;7.70;99.90
52016;DHT22;38032;53.326;6.472;2023-02-28T17:15:09;7.50;99.90
52016;DHT22;38032;53.326;6.472;2023-02-28T17:17:35;7.50;99.90
52016;DHT22;38032;53.326;6.472;2023-02-28T17:20:02;7.20;99.90
52016;DHT22;38032;53.326;6.472;2023-02-28T17:22:28;7.50;99.90
52016;DHT22;38032;53.326;6.472;2023-02-28T17:32:15;7.10;99.90
52016;DHT22;38032;53.326;6.472;2023-02-28T17:44:27;6.10;99.90
52016;DHT22;38032;53.326;6.472;2023-02-28T17:46:54;6.40;99.90
52016;DHT22;38032;53.326;6.472;2023-02-28T17:51:48;6.40;99.90
52016;DHT22;38032;53.326;6.472;2023-02-28T17:56:42;6.30;99.90
52016;DHT22;38032;53.326;6.472;2023-02-28T18:04:02;6.30;99.90
52016;DHT22;38032;53.326;6.472;2023-02-28T18:06:38;6.30;99.90
52016;DHT22;38032;53.326;6.472;2023-02-28T18:09:16;6.30;99.90
52016;DHT22;38032;53.326;6.472;2023-02-28T18:14:15;6.00;99.90
52016;DHT22;38032;53.326;6.472;2023-02-28T18:16:42;6.10;99.90
52016;DHT22;38032;53.326;6.472;2023-02-28T18:26:33;7.10;99.90
52016;DHT22;38032;53.326;6.472;2023-02-28T18:28:59;6.00;99.90
52016;DHT22;38032;53.326;6.472;2023-02-28T18:31:25;5.90;99.90
52016;DHT22;38032;53.326;6.472;2023-02-28T18:33:52;6.00;99.90
52016;DHT22;38032;53.326;6.472;2023-02-28T18:36:19;6.00;99.90
52016;DHT22;38032;53.326;6.472;2023-02-28T18:38:46;5.80;99.90
52016;DHT22;38032;53.326;6.472;2023-02-28T18:41:12;5.80;99.90
52016;DHT22;38032;53.326;6.472;2023-02-28T18:46:08;5.80;99.90
52016;DHT22;38032;53.326;6.472;2023-02-28T18:51:12;5.50;99.90
52016;DHT22;38032;53.326;6.472;2023-02-28T18:53:39;5.60;99.90
52016;DHT22;38032;53.326;6.472;2023-02-28T18:56:07;5.40;99.90
52016;DHT22;38032;53.326;6.472;2023-02-28T19:01:01;5.10;99.90
52016;DHT22;38032;53.326;6.472;2023-02-28T19:03:28;4.50;99.90
52016;DHT22;38032;53.326;6.472;2023-02-28T19:08:21;4.80;99.90
52016;DHT22;38032;53.326;6.472;2023-02-28T19:18:06;4.80;99.90
52016;DHT22;38032;53.326;6.472;2023-02-28T19:20:32;4.70;99.90
52016;DHT22;38032;53.326;6.472;2023-02-28T19:25:24;4.60;99.90
52016;DHT22;38032;53.326;6.472;2023-02-28T19:27:51;4.60;99.90
52016;DHT22;38032;53.326;6.472;2023-02-28T19:30:18;4.60;99.90
52016;DHT22;38032;53.326;6.472;2023-02-28T19:32:45;4.50;99.90
52016;DHT22;38032;53.326;6.472;2023-02-28T19:37:38;4.40;99.90
52016;DHT22;38032;53.326;6.472;2023-02-28T19:40:06;5.50;99.90
52016;DHT22;38032;53.326;6.472;2023-02-28T19:42:34;4.50;99.90
52016;DHT22;38032;53.326;6.472;2023-02-28T19:45:00;4.60;99.90
52016;DHT22;38032;53.326;6.472;2023-02-28T19:47:27;4.40;99.90
52016;DHT22;38032;53.326;6.472;2023-02-28T19:49:56;4.60;99.90
52016;DHT22;38032;53.326;6.472;2023-02-28T19:52:23;4.60;99.90
52016;DHT22;38032;53.326;6.472;2023-02-28T19:54:49;4.70;99.90
52016;DHT22;38032;53.326;6.472;2023-02-28T19:57:16;4.50;99.90
52016;DHT22;38032;53.326;6.472;2023-02-28T19:59:43;4.50;99.90
52016;DHT22;38032;53.326;6.472;2023-02-28T20:02:14;4.40;99.90
52016;DHT22;38032;53.326;6.472;2023-02-28T20:04:41;4.60;99.90
52016;DHT22;38032;53.326;6.472;2023-02-28T20:07:07;5.60;99.90
52016;DHT22;38032;53.326;6.472;2023-02-28T20:14:26;4.40;99.90
52016;DHT22;38032;53.326;6.472;2023-02-28T20:16:52;3.80;99.90
52016;DHT22;38032;53.326;6.472;2023-02-28T20:19:18;4.30;99.90
52016;DHT22;38032;53.326;6.472;2023-02-28T20:21:44;4.40;99.90
52016;DHT22;38032;53.326;6.472;2023-02-28T20:26:38;4.40;99.90
52016;DHT22;38032;53.326;6.472;2023-02-28T20:29:05;4.20;99.90
52016;DHT22;38032;53.326;6.472;2023-02-28T20:31:32;4.50;99.90
52016;DHT22;38032;53.326;6.472;2023-02-28T20:33:59;4.40;99.90
52016;DHT22;38032;53.326;6.472;2023-02-28T20:36:25;4.60;99.90
52016;DHT22;38032;53.326;6.472;2023-02-28T20:38:51;5.60;99.90
52016;DHT22;38032;53.326;6.472;2023-02-28T20:41:17;5.00;99.90
52016;DHT22;38032;53.326;6.472;2023-02-28T20:46:10;4.50;99.90
52016;DHT22;38032;53.326;6.472;2023-02-28T20:51:04;4.50;99.90
52016;DHT22;38032;53.326;6.472;2023-02-28T20:53:32;3.80;99.90
52016;DHT22;38032;53.326;6.472;2023-02-28T20:56:06;4.50;99.90
52016;DHT22;38032;53.326;6.472;2023-02-28T20:58:36;4.30;99.90
52016;DHT22;38032;53.326;6.472;2023-02-28T21:01:09;4.50;99.90
52016;DHT22;38032;53.326;6.472;2023-02-28T21:03:47;4.40;99.90